sensor_id;sensor_type;location;lat;lon;timestamp;pressure;altitude;pressure_sealevel;temperature;humidity
55077;BME280;40971;44.702;11.030;2023-04-16T00:06:31;100912.22;;;8.15;79.88
55077;BME280;40971;44.702;11.030;2023-04-16T00:16:32;100925.25;;;7.78;80.41
55077;BME280;40971;44.702;11.030;2023-04-16T00:26:33;100937.47;;;7.97;80.37
55077;BME280;40971;44.702;11.030;2023-04-16T00:36:35;100949.50;;;7.90;79.87
55077;BME280;40971;44.702;11.030;2023-04-16T00:46:36;100935.97;;;7.85;80.06
55077;BME280;40971;44.702;11.030;2023-04-16T00:56:38;100928.69;;;7.79;80.40
55077;BME280;40971;44.702;11.030;2023-04-16T01:06:40;100920.69;;;7.71;80.21
55077;BME280;40971;44.702;11.030;2023-04-16T01:16:41;100935.56;;;7.51;80.13
55077;BME280;40971;44.702;11.030;2023-04-16T01:26:42;100928.84;;;7.20;80.61
55077;BME280;40971;44.702;11.030;2023-04-16T01:36:43;100928.13;;;7.18;80.67
55077;BME280;40971;44.702;11.030;2023-04-16T01:46:45;100939.97;;;7.12;80.55
55077;BME280;40971;44.702;11.030;2023-04-16T01:56:46;100960.53;;;6.47;81.92
55077;BME280;40971;44.702;11.030;2023-04-16T02:06:47;100965.78;;;6.56;83.77
55077;BME280;40971;44.702;11.030;2023-04-16T02:16:50;100969.19;;;6.87;83.76
55077;BME280;40971;44.702;11.030;2023-04-16T02:26:54;100980.94;;;7.02;82.82
55077;BME280;40971;44.702;11.030;2023-04-16T02:36:57;100981.22;;;6.99;82.09
55077;BME280;40971;44.702;11.030;2023-04-16T02:46:58;100970.66;;;7.10;81.57
55077;BME280;40971;44.702;11.030;2023-04-16T02:57:00;100979.22;;;7.31;81.72
55077;BME280;40971;44.702;11.030;2023-04-16T03:07:02;100979.78;;;7.44;81.53
55077;BME280;40971;44.702;11.030;2023-04-16T03:17:05;100987.50;;;7.75;81.93
55077;BME280;40971;44.702;11.030;2023-04-16T03:27:07;100993.28;;;7.88;81.63
55077;BME280;40971;44.702;11.030;2023-04-16T03:37:08;100989.28;;;7.93;80.99
55077;BME280;40971;44.702;11.030;2023-04-16T03:47:14;100996.75;;;7.79;81.88
55077;BME280;40971;44.702;11.030;2023-04-16T03:57:16;101016.81;;;7.49;82.56
55077;BME280;40971;44.702;11.030;2023-04-16T04:07:17;101034.88;;;7.62;81.71
55077;BME280;40971;44.702;11.030;2023-04-16T04:17:20;101028.50;;;7.45;81.75
55077;BME280;40971;44.702;11.030;2023-04-16T04:27:23;101050.69;;;7.41;81.52
55077;BME280;40971;44.702;11.030;2023-04-16T04:37:26;101058.47;;;7.22;81.58
55077;BME280;40971;44.702;11.030;2023-04-16T04:47:29;101060.16;;;7.33;81.31
55077;BME280;40971;44.702;11.030;2023-04-16T04:57:30;101062.22;;;6.89;83.64
55077;BME280;40971;44.702;11.030;2023-04-16T05:07:31;101073.84;;;7.06;82.57
55077;BME280;40971;44.702;11.030;2023-04-16T05:17:33;101090.56;;;6.94;83.05
55077;BME280;40971;44.702;11.030;2023-04-16T05:27:35;101097.97;;;7.19;84.33
55077;BME280;40971;44.702;11.030;2023-04-16T05:37:37;101108.97;;;7.72;83.36
55077;BME280;40971;44.702;11.030;2023-04-16T05:47:39;101111.09;;;8.26;80.66
55077;BME280;40971;44.702;11.030;2023-04-16T05:57:42;101121.97;;;8.60;79.22
55077;BME280;40971;44.702;11.030;2023-04-16T06:07:43;101142.31;;;8.95;80.52
55077;BME280;40971;44.702;11.030;2023-04-16T06:17:48;101149.94;;;9.34;79.24
55077;BME280;40971;44.702;11.030;2023-04-16T06:27:51;101172.63;;;9.80;77.03
55077;BME280;40971;44.702;11.030;2023-04-16T06:37:53;101175.19;;;10.17;76.03
55077;BME280;40971;44.702;11.030;2023-04-16T06:47:57;101173.38;;;10.71;73.22
55077;BME280;40971;44.702;11.030;2023-04-16T06:57:58;101172.03;;;11.44;71.41
55077;BME280;40971;44.702;11.030;2023-04-16T07:07:59;101193.06;;;12.27;67.36
55077;BME280;40971;44.702;11.030;2023-04-16T07:18:00;101188.19;;;13.91;58.90
55077;BME280;40971;44.702;11.030;2023-04-16T07:28:02;101191.09;;;14.27;57.12
55077;BME280;40971;44.702;11.030;2023-04-16T07:38:03;101185.88;;;14.19;57.47
55077;BME280;40971;44.702;11.030;2023-04-16T07:48:04;101186.84;;;14.26;57.45
55077;BME280;40971;44.702;11.030;2023-04-16T07:58:06;101193.34;;;15.35;52.99
55077;BME280;40971;44.702;11.030;2023-04-16T08:08:09;101198.81;;;15.78;53.15
55077;BME280;40971;44.702;11.030;2023-04-16T08:18:10;101211.19;;;16.21;52.56
55077;BME280;40971;44.702;11.030;2023-04-16T08:28:15;101216.75;;;16.47;52.49
55077;BME280;40971;44.702;11.030;2023-04-16T08:38:16;101222.63;;;16.57;52.04
55077;BME280;40971;44.702;11.030;2023-04-16T08:48:18;101208.47;;;16.99;49.73
55077;BME280;40971;44.702;11.030;2023-04-16T08:58:21;101213.69;;;17.48;47.05
55077;BME280;40971;44.702;11.030;2023-04-16T09:08:23;101211.94;;;16.15;46.51
55077;BME280;40971;44.702;11.030;2023-04-16T09:18:25;101218.50;;;17.04;44.26
55077;BME280;40971;44.702;11.030;2023-04-16T09:28:47;101222.47;;;17.70;41.54
55077;BME280;40971;44.702;11.030;2023-04-16T09:38:50;101218.31;;;17.33;41.48
55077;BME280;40971;44.702;11.030;2023-04-16T09:48:51;101216.53;;;17.74;41.69
55077;BME280;40971;44.702;11.030;2023-04-16T09:58:56;101226.44;;;17.93;39.39
55077;BME280;40971;44.702;11.030;2023-04-16T10:08:58;101207.22;;;17.98;39.70
55077;BME280;40971;44.702;11.030;2023-04-16T10:18:59;101221.09;;;17.18;38.17
55077;BME280;40971;44.702;11.030;2023-04-16T10:29:01;101219.69;;;17.91;37.97
55077;BME280;40971;44.702;11.030;2023-04-16T10:39:02;101218.75;;;18.12;38.49
55077;BME280;40971;44.702;11.030;2023-04-16T10:59:20;101199.56;;;18.42;36.23
55077;BME280;40971;44.702;11.030;2023-04-16T11:09:43;101203.22;;;18.35;35.27
55077;BME280;40971;44.702;11.030;2023-04-16T11:19:46;101203.31;;;18.94;35.49
55077;BME280;40971;44.702;11.030;2023-04-16T11:29:58;101198.44;;;18.04;34.07
55077;BME280;40971;44.702;11.030;2023-04-16T11:39:59;101198.56;;;19.22;35.02
55077;BME280;40971;44.702;11.030;2023-04-16T11:50:17;101190.00;;;19.00;33.74
55077;BME280;40971;44.702;11.030;2023-04-16T12:00:19;101183.25;;;18.78;33.79
55077;BME280;40971;44.702;11.030;2023-04-16T12:10:21;101181.56;;;19.16;34.20
55077;BME280;40971;44.702;11.030;2023-04-16T12:20:22;101171.69;;;19.30;34.03
55077;BME280;40971;44.702;11.030;2023-04-16T12:30:24;101169.16;;;19.68;31.58
55077;BME280;40971;44.702;11.030;2023-04-16T12:40:29;101145.69;;;20.77;29.89
55077;BME280;40971;44.702;11.030;2023-04-16T12:50:30;101144.69;;;19.71;30.17
55077;BME280;40971;44.702;11.030;2023-04-16T13:00:31;101133.19;;;20.15;30.11
55077;BME280;40971;44.702;11.030;2023-04-16T13:10:33;101138.00;;;19.55;29.94
55077;BME280;40971;44.702;11.030;2023-04-16T13:20:35;101124.53;;;20.13;29.30
55077;BME280;40971;44.702;11.030;2023-04-16T13:30:36;101118.38;;;19.81;31.06
55077;BME280;40971;44.702;11.030;2023-04-16T13:40:37;101110.94;;;20.27;30.95
55077;BME280;40971;44.702;11.030;2023-04-16T13:50:38;101110.22;;;20.07;30.27
55077;BME280;40971;44.702;11.030;2023-04-16T14:00:39;101113.53;;;18.94;33.51
55077;BME280;40971;44.702;11.030;2023-04-16T14:10:40;101119.16;;;19.50;32.58
55077;BME280;40971;44.702;11.030;2023-04-16T14:20:42;101117.31;;;19.89;30.61
55077;BME280;40971;44.702;11.030;2023-04-16T14:30:43;101117.25;;;18.60;33.04
55077;BME280;40971;44.702;11.030;2023-04-16T14:40:44;101126.16;;;19.32;31.66
55077;BME280;40971;44.702;11.030;2023-04-16T14:50:45;101132.75;;;19.23;32.00
55077;BME280;40971;44.702;11.030;2023-04-16T15:00:46;101127.78;;;19.90;30.03
55077;BME280;40971;44.702;11.030;2023-04-16T15:10:47;101122.47;;;19.33;29.98
55077;BME280;40971;44.702;11.030;2023-04-16T15:20:48;101134.22;;;18.27;31.80
55077;BME280;40971;44.702;11.030;2023-04-16T15:30:51;101118.09;;;18.54;30.73
55077;BME280;40971;44.702;11.030;2023-04-16T15:40:52;101124.84;;;18.70;30.92
55077;BME280;40971;44.702;11.030;2023-04-16T15:50:53;101121.34;;;18.37;30.68
55077;BME280;40971;44.702;11.030;2023-04-16T16:00:54;101147.59;;;18.66;31.15
55077;BME280;40971;44.702;11.030;2023-04-16T16:10:55;101143.72;;;17.75;32.13
55077;BME280;40971;44.702;11.030;2023-04-16T16:20:57;101147.69;;;17.52;34.61
55077;BME280;40971;44.702;11.030;2023-04-16T16:30:58;101173.66;;;16.45;37.82
55077;BME280;40971;44.702;11.030;2023-04-16T16:41:00;101180.38;;;16.41;36.41
55077;BME280;40971;44.702;11.030;2023-04-16T16:51:01;101183.22;;;16.18;38.20
55077;BME280;40971;44.702;11.030;2023-04-16T17:01:02;101176.81;;;15.77;38.72
55077;BME280;40971;44.702;11.030;2023-04-16T17:11:03;101196.16;;;15.92;38.40
55077;BME280;40971;44.702;11.030;2023-04-16T17:21:04;101209.28;;;15.64;39.01
55077;BME280;40971;44.702;11.030;2023-04-16T17:31:06;101208.13;;;15.44;39.73
55077;BME280;40971;44.702;11.030;2023-04-16T17:41:07;101245.75;;;15.25;40.02
55077;BME280;40971;44.702;11.030;2023-04-16T17:51:10;101241.59;;;14.93;41.03
55077;BME280;40971;44.702;11.030;2023-04-16T18:01:11;101231.66;;;14.73;41.84
55077;BME280;40971;44.702;11.030;2023-04-16T18:11:12;101253.72;;;14.42;43.39
55077;BME280;40971;44.702;11.030;2023-04-16T18:21:13;101238.13;;;14.17;45.22
55077;BME280;40971;44.702;11.030;2023-04-16T18:31:14;101264.94;;;14.06;48.02
55077;BME280;40971;44.702;11.030;2023-04-16T18:41:16;101275.75;;;13.88;50.11
55077;BME280;40971;44.702;11.030;2023-04-16T18:51:17;101276.09;;;13.93;49.59
55077;BME280;40971;44.702;11.030;2023-04-16T19:01:21;101274.13;;;13.87;50.50
55077;BME280;40971;44.702;11.030;2023-04-16T19:11:22;101283.56;;;13.81;50.74
55077;BME280;40971;44.702;11.030;2023-04-16T19:21:23;101286.09;;;13.51;53.43
55077;BME280;40971;44.702;11.030;2023-04-16T19:31:27;101293.69;;;13.05;54.80
55077;BME280;40971;44.702;11.030;2023-04-16T19:41:30;101303.56;;;12.79;54.81
55077;BME280;40971;44.702;11.030;2023-04-16T19:51:31;101304.81;;;12.51;56.33
55077;BME280;40971;44.702;11.030;2023-04-16T20:01:32;101298.13;;;12.14;58.03
55077;BME280;40971;44.702;11.030;2023-04-16T20:11:33;101298.03;;;11.90;59.39
55077;BME280;40971;44.702;11.030;2023-04-16T20:21:35;101303.19;;;11.48;60.94
55077;BME280;40971;44.702;11.030;2023-04-16T20:31:36;101310.00;;;11.16;62.52
55077;BME280;40971;44.702;11.030;2023-04-16T20:41:37;101305.59;;;10.63;64.43
55077;BME280;40971;44.702;11.030;2023-04-16T20:51:44;101305.31;;;10.66;63.92
55077;BME280;40971;44.702;11.030;2023-04-16T21:01:45;101302.25;;;10.16;65.61
55077;BME280;40971;44.702;11.030;2023-04-16T21:11:48;101302.00;;;10.10;65.41
55077;BME280;40971;44.702;11.030;2023-04-16T21:21:49;101305.81;;;9.88;68.96
55077;BME280;40971;44.702;11.030;2023-04-16T21:31:50;101303.41;;;9.67;67.94
55077;BME280;40971;44.702;11.030;2023-04-16T21:41:51;101306.13;;;9.85;69.06
55077;BME280;40971;44.702;11.030;2023-04-16T21:51:53;101298.81;;;9.69;69.42
55077;BME280;40971;44.702;11.030;2023-04-16T22:01:59;101292.34;;;9.73;69.55
55077;BME280;40971;44.702;11.030;2023-04-16T22:12:01;101305.66;;;9.53;69.73
55077;BME280;40971;44.702;11.030;2023-04-16T22:22:01;101296.84;;;9.25;71.67
55077;BME280;40971;44.702;11.030;2023-04-16T22:32:03;101298.53;;;9.07;71.80
55077;BME280;40971;44.702;11.030;2023-04-16T22:42:04;101308.47;;;8.84;72.25
55077;BME280;40971;44.702;11.030;2023-04-16T22:52:05;101311.09;;;8.65;72.21
55077;BME280;40971;44.702;11.030;2023-04-16T23:02:06;101305.41;;;8.60;72.65
55077;BME280;40971;44.702;11.030;2023-04-16T23:12:08;101299.34;;;8.69;72.13
55077;BME280;40971;44.702;11.030;2023-04-16T23:22:09;101308.19;;;8.58;73.25
55077;BME280;40971;44.702;11.030;2023-04-16T23:32:11;101304.53;;;8.31;73.81
55077;BME280;40971;44.702;11.030;2023-04-16T23:42:13;101312.88;;;7.85;76.72
55077;BME280;40971;44.702;11.030;2023-04-16T23:52:15;101319.31;;;8.11;75.29
